Terminal Aerodrome Forecast
Issued by NWS

Home | Current Version | Previous Version | Text Only | Print | Product List | Glossary On
Versions: 1 2 3 4 5 6 7 8 9 10 11 12 13 14 15 16 17
000
FTUS43 KIND 041120
TAFLAF
TAF
KLAF 041120Z 0412/0512 10004KT P6SM VCSH OVC060
     FM041600 11005KT P6SM VCSH OVC015
     FM041800 13005KT 4SM RA OVC015
     FM042000 11004KT 1SM RASN OVC003
     FM042300 17004KT P6SM OVC003
     FM050300 26006KT P6SM OVC003
     FM050700 27005KT P6SM BKN010
      AMD LTD TO CLD VIS AND WIND TIL 041400=

USA.gov is the U.S. government's official web portal to all federal, state and local government web resources and services.